createdAt,value
2019-05-30T00:00:36.822Z,1004.52
2019-05-30T00:01:36.836Z,1004.47
2019-05-30T00:02:36.823Z,1004.45
2019-05-30T00:03:36.843Z,1004.47
2019-05-30T00:04:36.832Z,1004.44
2019-05-30T00:05:36.815Z,1004.48
2019-05-30T00:06:36.816Z,1004.45
2019-05-30T00:07:36.817Z,1004.42
2019-05-30T00:08:36.809Z,1004.39
2019-05-30T00:09:36.812Z,1004.29
2019-05-30T00:10:36.814Z,1004.35
2019-05-30T00:11:36.816Z,1004.34
2019-05-30T00:12:36.813Z,1004.33
2019-05-30T00:13:36.811Z,1004.37
2019-05-30T00:14:44.579Z,1004.33
2019-05-30T00:15:36.807Z,1004.34
2019-05-30T00:16:44.612Z,1004.36
2019-05-30T00:17:36.823Z,1004.32
2019-05-30T00:18:36.807Z,1004.31
2019-05-30T00:19:36.811Z,1004.28
2019-05-30T00:20:36.876Z,1004.29
2019-05-30T00:21:36.806Z,1004.32
2019-05-30T00:22:36.816Z,1004.35
2019-05-30T00:23:36.811Z,1004.31
2019-05-30T00:24:36.812Z,1004.34
2019-05-30T00:25:36.812Z,1004.34
2019-05-30T00:26:36.821Z,1004.32
2019-05-30T00:27:36.811Z,1004.30
2019-05-30T00:28:36.797Z,1004.31
2019-05-30T00:29:36.799Z,1004.25
2019-05-30T00:30:36.806Z,1004.24
2019-05-30T00:31:36.800Z,1004.27
2019-05-30T00:32:36.809Z,1004.24
2019-05-30T00:33:36.800Z,1004.26
2019-05-30T00:34:36.797Z,1004.29
2019-05-30T00:35:36.798Z,1004.28
2019-05-30T00:36:36.797Z,1004.33
2019-05-30T00:37:36.817Z,1004.34
2019-05-30T00:38:36.799Z,1004.33
2019-05-30T00:39:36.795Z,1004.36
2019-05-30T00:40:36.796Z,1004.42
2019-05-30T00:41:36.793Z,1004.39
2019-05-30T00:42:36.792Z,1004.37
2019-05-30T00:43:36.797Z,1004.41
2019-05-30T00:44:36.791Z,1004.40
2019-05-30T00:45:36.791Z,1004.41
2019-05-30T00:46:36.793Z,1004.41
2019-05-30T00:47:36.793Z,1004.40
2019-05-30T00:48:36.792Z,1004.37
2019-05-30T00:49:36.790Z,1004.41
2019-05-30T00:50:36.790Z,1004.40
2019-05-30T00:51:36.789Z,1004.40
2019-05-30T00:52:36.806Z,1004.38
2019-05-30T00:53:36.793Z,1004.41
2019-05-30T00:54:36.788Z,1004.36
2019-05-30T00:55:36.790Z,1004.36
2019-05-30T00:56:36.785Z,1004.32
2019-05-30T00:57:36.800Z,1004.33
2019-05-30T00:58:36.787Z,1004.38
2019-05-30T00:59:36.786Z,1004.33
2019-05-30T01:00:43.346Z,1004.34
2019-05-30T01:01:36.785Z,1004.34
2019-05-30T01:02:36.795Z,1004.34
2019-05-30T01:03:36.791Z,1004.30
2019-05-30T01:04:36.781Z,1004.24
2019-05-30T01:05:36.782Z,1004.21
2019-05-30T01:06:36.790Z,1004.19
2019-05-30T01:07:36.797Z,1004.20
2019-05-30T01:08:36.786Z,1004.21
2019-05-30T01:09:36.781Z,1004.16
2019-05-30T01:10:36.783Z,1004.16
2019-05-30T01:11:36.777Z,1004.10
2019-05-30T01:12:36.775Z,1004.07
2019-05-30T01:13:36.784Z,1004.04
2019-05-30T01:14:36.781Z,1004.01
2019-05-30T01:15:36.777Z,1003.95
2019-05-30T01:16:36.776Z,1003.95
2019-05-30T01:17:36.776Z,1003.96
2019-05-30T01:18:36.786Z,1003.99
2019-05-30T01:19:36.772Z,1003.98
2019-05-30T01:20:36.773Z,1003.99
2019-05-30T01:21:36.770Z,1003.95
2019-05-30T01:22:36.771Z,1003.95
2019-05-30T01:23:36.787Z,1003.93
2019-05-30T01:24:36.769Z,1003.90
2019-05-30T01:25:36.767Z,1003.89
2019-05-30T01:26:36.767Z,1003.87
2019-05-30T01:27:36.768Z,1003.82
2019-05-30T01:28:36.770Z,1003.79
2019-05-30T01:29:36.764Z,1003.79
2019-05-30T01:30:36.770Z,1003.78
2019-05-30T01:31:36.770Z,1003.71
2019-05-30T01:32:36.764Z,1003.75
2019-05-30T01:33:36.774Z,1003.72
2019-05-30T01:34:36.761Z,1003.75
2019-05-30T01:35:36.761Z,1003.76
2019-05-30T01:36:36.762Z,1003.73
2019-05-30T01:37:36.772Z,1003.79
2019-05-30T01:38:36.762Z,1003.77
2019-05-30T01:39:36.762Z,1003.77
2019-05-30T01:40:36.762Z,1003.80
2019-05-30T01:41:36.763Z,1003.80
2019-05-30T01:42:36.761Z,1003.81
2019-05-30T01:43:36.757Z,1003.85
2019-05-30T01:44:36.765Z,1003.85
2019-05-30T01:45:36.754Z,1003.88
2019-05-30T01:46:36.754Z,1003.88
2019-05-30T01:47:36.756Z,1003.85
2019-05-30T01:48:36.756Z,1003.85
2019-05-30T01:49:36.788Z,1003.85
2019-05-30T01:50:36.758Z,1003.84
2019-05-30T01:51:36.755Z,1003.89
2019-05-30T01:52:36.751Z,1003.90
2019-05-30T01:53:36.754Z,1003.88
2019-05-30T01:54:36.755Z,1003.88
2019-05-30T01:55:36.752Z,1003.91
2019-05-30T01:56:36.806Z,1003.90
2019-05-30T01:57:36.755Z,1003.88
2019-05-30T01:58:36.753Z,1003.92
2019-05-30T01:59:36.761Z,1003.93
2019-05-30T02:00:37.233Z,1003.98
2019-05-30T02:01:36.744Z,1003.96
2019-05-30T02:02:36.745Z,1003.97
2019-05-30T02:03:36.757Z,1003.95
2019-05-30T02:04:36.756Z,1003.94
2019-05-30T02:05:36.744Z,1003.91
2019-05-30T02:06:38.144Z,1003.89
2019-05-30T02:07:36.745Z,1003.84
2019-05-30T02:08:36.744Z,1003.85
2019-05-30T02:09:36.752Z,1003.85
2019-05-30T02:10:36.754Z,1003.86
2019-05-30T02:11:36.744Z,1003.91
2019-05-30T02:12:36.741Z,1003.90
2019-05-30T02:13:36.744Z,1003.93
2019-05-30T02:14:36.746Z,1003.95
2019-05-30T02:15:36.741Z,1003.98
2019-05-30T02:16:36.761Z,1003.99
2019-05-30T02:17:36.737Z,1004.03
2019-05-30T02:18:36.740Z,1004.08
2019-05-30T02:19:36.765Z,1004.07
2019-05-30T02:20:36.737Z,1004.04
2019-05-30T02:21:36.734Z,1004.05
2019-05-30T02:22:36.738Z,1004.05
2019-05-30T02:23:36.740Z,1004.07
2019-05-30T02:24:36.737Z,1004.10
2019-05-30T02:25:36.742Z,1004.07
2019-05-30T02:26:36.732Z,1004.08
2019-05-30T02:27:36.744Z,1004.08
2019-05-30T02:28:36.730Z,1004.08
2019-05-30T02:29:36.731Z,1004.11
2019-05-30T02:30:36.737Z,1004.13
2019-05-30T02:31:39.349Z,1004.14
2019-05-30T02:32:36.729Z,1004.18
2019-05-30T02:33:36.747Z,1004.19
2019-05-30T02:34:36.728Z,1004.22
2019-05-30T02:35:36.731Z,1004.20
2019-05-30T02:36:36.735Z,1004.21
2019-05-30T02:37:36.741Z,1004.26
2019-05-30T02:38:36.727Z,1004.26
2019-05-30T02:39:36.726Z,1004.23
2019-05-30T02:40:36.748Z,1004.26
2019-05-30T02:41:36.723Z,1004.25
2019-05-30T02:42:36.723Z,1004.24
2019-05-30T02:43:36.738Z,1004.25
2019-05-30T02:44:36.723Z,1004.23
2019-05-30T02:45:36.725Z,1004.24
2019-05-30T02:46:36.723Z,1004.28
2019-05-30T02:47:44.394Z,1004.23
2019-05-30T02:48:54.778Z,1004.29
2019-05-30T02:49:44.431Z,1004.34
2019-05-30T02:50:43.780Z,1004.27
2019-05-30T02:51:36.723Z,1004.32
2019-05-30T02:52:36.719Z,1004.30
2019-05-30T02:53:36.718Z,1004.30
2019-05-30T02:54:36.720Z,1004.32
2019-05-30T02:55:36.714Z,1004.38
2019-05-30T02:56:36.718Z,1004.36
2019-05-30T02:57:36.727Z,1004.37
2019-05-30T02:58:36.714Z,1004.36
2019-05-30T02:59:36.735Z,1004.34
2019-05-30T03:00:36.719Z,1004.39
2019-05-30T03:01:36.716Z,1004.41
2019-05-30T03:02:36.716Z,1004.41
2019-05-30T03:03:36.710Z,1004.43
2019-05-30T03:04:36.712Z,1004.46
2019-05-30T03:05:36.724Z,1004.48
2019-05-30T03:06:36.711Z,1004.47
2019-05-30T03:07:36.706Z,1004.50
2019-05-30T03:08:36.707Z,1004.49
2019-05-30T03:09:36.709Z,1004.49
2019-05-30T03:10:36.726Z,1004.48
2019-05-30T03:11:36.708Z,1004.49
2019-05-30T03:12:36.723Z,1004.48
2019-05-30T03:13:36.708Z,1004.52
2019-05-30T03:14:36.705Z,1004.51
2019-05-30T03:15:36.708Z,1004.54
2019-05-30T03:16:36.737Z,1004.55
2019-05-30T03:17:36.711Z,1004.52
2019-05-30T03:18:36.713Z,1004.50
2019-05-30T03:19:36.705Z,1004.49
2019-05-30T03:20:36.730Z,1004.50
2019-05-30T03:21:36.711Z,1004.51
2019-05-30T03:22:36.704Z,1004.49
2019-05-30T03:23:36.707Z,1004.48
2019-05-30T03:24:36.699Z,1004.43
2019-05-30T03:25:36.699Z,1004.42
2019-05-30T03:26:36.701Z,1004.46
2019-05-30T03:27:36.703Z,1004.43
2019-05-30T03:28:36.696Z,1004.48
2019-05-30T03:29:36.696Z,1004.50
2019-05-30T03:30:36.722Z,1004.52
2019-05-30T03:31:36.707Z,1004.53
2019-05-30T03:33:03.690Z,1004.47
2019-05-30T03:33:41.384Z,1004.50
2019-05-30T03:34:36.702Z,1004.53
2019-05-30T03:35:42.630Z,1004.54
2019-05-30T03:36:36.699Z,1004.58
2019-05-30T03:37:36.710Z,1004.58
2019-05-30T03:38:36.689Z,1004.57
2019-05-30T03:39:36.693Z,1004.60
2019-05-30T03:40:36.696Z,1004.61
2019-05-30T03:41:36.692Z,1004.60
2019-05-30T03:42:36.696Z,1004.64
2019-05-30T03:43:36.691Z,1004.69
2019-05-30T03:44:36.690Z,1004.67
2019-05-30T03:45:36.686Z,1004.69
2019-05-30T03:46:36.696Z,1004.72
2019-05-30T03:47:36.693Z,1004.68
2019-05-30T03:48:36.685Z,1004.70
2019-05-30T03:49:36.688Z,1004.71
2019-05-30T03:50:36.694Z,1004.67
2019-05-30T03:51:36.687Z,1004.69
2019-05-30T03:52:36.685Z,1004.69
2019-05-30T03:53:36.685Z,1004.72
2019-05-30T03:54:36.682Z,1004.70
2019-05-30T03:55:36.681Z,1004.66
2019-05-30T03:56:36.684Z,1004.66
2019-05-30T03:57:36.695Z,1004.68
2019-05-30T03:58:36.687Z,1004.73
2019-05-30T03:59:36.681Z,1004.69
2019-05-30T04:00:36.680Z,1004.71
2019-05-30T04:01:36.679Z,1004.71
2019-05-30T04:02:55.238Z,1004.71
2019-05-30T04:03:36.683Z,1004.65
2019-05-30T04:04:36.678Z,1004.66
2019-05-30T04:05:36.676Z,1004.68
2019-05-30T04:06:36.677Z,1004.70
2019-05-30T04:07:36.684Z,1004.68
2019-05-30T04:08:36.677Z,1004.69
2019-05-30T04:09:36.692Z,1004.70
2019-05-30T04:10:36.674Z,1004.71
2019-05-30T04:11:37.600Z,1004.68
2019-05-30T04:12:36.687Z,1004.67
2019-05-30T04:13:36.671Z,1004.70
2019-05-30T04:14:36.676Z,1004.69
2019-05-30T04:15:36.670Z,1004.66
2019-05-30T04:16:36.699Z,1004.71
2019-05-30T04:17:36.670Z,1004.75
2019-05-30T04:18:36.715Z,1004.77
2019-05-30T04:19:36.672Z,1004.77
2019-05-30T04:20:36.670Z,1004.76
2019-05-30T04:21:36.666Z,1004.80
2019-05-30T04:22:36.662Z,1004.83
2019-05-30T04:23:36.667Z,1004.78
2019-05-30T04:24:36.669Z,1004.78
2019-05-30T04:25:36.666Z,1004.77
2019-05-30T04:26:36.666Z,1004.78
2019-05-30T04:27:36.665Z,1004.83
2019-05-30T04:28:36.664Z,1004.79
2019-05-30T04:29:36.663Z,1004.79
2019-05-30T04:30:36.661Z,1004.81
2019-05-30T04:31:36.660Z,1004.78
2019-05-30T04:32:36.668Z,1004.84
2019-05-30T04:33:36.667Z,1004.82
2019-05-30T04:34:36.670Z,1004.83
2019-05-30T04:35:36.660Z,1004.83
2019-05-30T04:36:36.656Z,1004.78
2019-05-30T04:37:36.656Z,1004.78
2019-05-30T04:38:36.671Z,1004.72
2019-05-30T04:39:36.655Z,1004.74
2019-05-30T04:40:36.657Z,1004.71
2019-05-30T04:41:36.651Z,1004.71
2019-05-30T04:42:36.656Z,1004.73
2019-05-30T04:43:36.658Z,1004.69
2019-05-30T04:44:36.651Z,1004.71
2019-05-30T04:45:36.652Z,1004.68
2019-05-30T04:46:36.652Z,1004.67
2019-05-30T04:47:36.690Z,1004.70
2019-05-30T04:48:36.660Z,1004.69
2019-05-30T04:49:36.647Z,1004.70
2019-05-30T04:50:36.652Z,1004.75
2019-05-30T04:51:36.656Z,1004.74
2019-05-30T04:52:36.648Z,1004.78
2019-05-30T04:53:36.658Z,1004.76
2019-05-30T04:54:36.660Z,1004.74
2019-05-30T04:55:36.685Z,1004.79
2019-05-30T04:56:36.649Z,1004.74
2019-05-30T04:57:36.644Z,1004.74
2019-05-30T04:58:41.498Z,1004.76
2019-05-30T04:59:36.645Z,1004.77
2019-05-30T05:00:36.642Z,1004.77
2019-05-30T05:01:36.642Z,1004.79
2019-05-30T05:02:36.646Z,1004.83
2019-05-30T05:03:45.954Z,1004.77
2019-05-30T05:04:36.665Z,1004.79
2019-05-30T05:05:36.641Z,1004.82
2019-05-30T05:06:36.641Z,1004.79
2019-05-30T05:07:36.640Z,1004.77
2019-05-30T05:08:36.637Z,1004.76
2019-05-30T05:09:36.639Z,1004.73
2019-05-30T05:10:36.656Z,1004.74
2019-05-30T05:11:36.641Z,1004.74
2019-05-30T05:12:36.637Z,1004.67
2019-05-30T05:13:36.638Z,1004.67
2019-05-30T05:14:36.642Z,1004.69
2019-05-30T05:15:36.633Z,1004.66
2019-05-30T05:16:36.727Z,1004.66
2019-05-30T05:17:36.633Z,1004.70
2019-05-30T05:18:36.631Z,1004.65
2019-05-30T05:19:36.634Z,1004.64
2019-05-30T05:20:36.634Z,1004.63
2019-05-30T05:21:36.629Z,1004.63
2019-05-30T05:22:36.631Z,1004.68
2019-05-30T05:23:36.627Z,1004.63
2019-05-30T05:24:36.634Z,1004.64
2019-05-30T05:25:36.628Z,1004.64
2019-05-30T05:26:36.626Z,1004.62
2019-05-30T05:27:36.629Z,1004.55
2019-05-30T05:28:36.627Z,1004.56
2019-05-30T05:29:36.634Z,1004.55
2019-05-30T05:30:36.629Z,1004.56
2019-05-30T05:31:36.634Z,1004.55
2019-05-30T05:32:36.628Z,1004.53
2019-05-30T05:33:36.626Z,1004.51
2019-05-30T05:34:36.908Z,1004.50
2019-05-30T05:35:36.622Z,1004.47
2019-05-30T05:36:36.624Z,1004.44
2019-05-30T05:37:36.619Z,1004.45
2019-05-30T05:38:36.622Z,1004.43
2019-05-30T05:39:36.620Z,1004.47
2019-05-30T05:40:36.623Z,1004.42
2019-05-30T05:41:36.619Z,1004.44
2019-05-30T05:42:36.621Z,1004.43
2019-05-30T05:43:36.618Z,1004.42
2019-05-30T05:44:36.622Z,1004.39
2019-05-30T05:45:36.628Z,1004.39
2019-05-30T05:46:36.617Z,1004.38
2019-05-30T05:47:36.615Z,1004.38
2019-05-30T05:48:36.614Z,1004.35
2019-05-30T05:49:36.614Z,1004.38
2019-05-30T05:50:36.626Z,1004.38
2019-05-30T05:51:36.615Z,1004.32
2019-05-30T05:52:36.612Z,1004.33
2019-05-30T05:53:36.611Z,1004.30
2019-05-30T05:54:36.609Z,1004.29
2019-05-30T05:55:36.614Z,1004.26
2019-05-30T05:56:36.609Z,1004.22
2019-05-30T05:57:36.610Z,1004.17
2019-05-30T05:58:36.612Z,1004.17
2019-05-30T05:59:36.606Z,1004.12
2019-05-30T06:00:36.617Z,1004.09
2019-05-30T06:01:36.607Z,1004.06
2019-05-30T06:02:36.608Z,1004.03
2019-05-30T06:03:36.611Z,1004.05
2019-05-30T06:04:36.605Z,1004.03
2019-05-30T06:05:50.245Z,1003.96
2019-05-30T06:06:36.603Z,1004.00
2019-05-30T06:07:36.604Z,1004.04
2019-05-30T06:08:36.602Z,1004.06
2019-05-30T06:09:36.602Z,1004.06
2019-05-30T06:10:36.611Z,1004.04
2019-05-30T06:11:36.606Z,1004.01
2019-05-30T06:12:36.601Z,1004.00
2019-05-30T06:13:36.612Z,1003.99
2019-05-30T06:14:36.603Z,1004.02
2019-05-30T06:15:36.613Z,1004.03
2019-05-30T06:16:36.603Z,1004.04
2019-05-30T06:17:36.597Z,1003.97
2019-05-30T06:18:36.594Z,1003.97
2019-05-30T06:19:45.997Z,1003.93
2019-05-30T06:20:36.596Z,1003.90
2019-05-30T06:21:36.598Z,1003.88
2019-05-30T06:22:36.594Z,1003.85
2019-05-30T06:23:36.595Z,1003.81
2019-05-30T06:24:36.606Z,1003.83
2019-05-30T06:25:36.593Z,1003.83
2019-05-30T06:26:36.597Z,1003.85
2019-05-30T06:27:36.600Z,1003.86
2019-05-30T06:28:38.299Z,1003.82
2019-05-30T06:29:36.597Z,1003.77
2019-05-30T06:30:36.589Z,1003.70
2019-05-30T06:31:36.873Z,1003.68
2019-05-30T06:32:36.589Z,1003.62
2019-05-30T06:33:36.589Z,1003.50
2019-05-30T06:34:39.353Z,1003.46
2019-05-30T06:35:36.588Z,1003.42
2019-05-30T06:36:36.598Z,1003.33
2019-05-30T06:37:36.589Z,1003.19
2019-05-30T06:38:36.584Z,1003.26
2019-05-30T06:39:36.588Z,1003.24
2019-05-30T06:40:36.611Z,1003.22
2019-05-30T06:41:36.592Z,1003.17
2019-05-30T06:42:36.587Z,1003.19
2019-05-30T06:43:36.582Z,1003.13
2019-05-30T06:44:36.582Z,1003.13
2019-05-30T06:45:36.608Z,1003.03
2019-05-30T06:46:36.611Z,1003.00
2019-05-30T06:47:36.581Z,1003.01
2019-05-30T06:48:36.581Z,1003.00
2019-05-30T06:49:36.580Z,1002.93
2019-05-30T06:50:36.587Z,1002.79
2019-05-30T06:51:36.583Z,1002.74
2019-05-30T06:52:36.602Z,1002.77
2019-05-30T06:53:36.601Z,1002.84
2019-05-30T06:54:36.579Z,1002.78
2019-05-30T06:55:36.574Z,1002.78
2019-05-30T06:56:36.580Z,1002.69
2019-05-30T06:57:36.577Z,1002.38
2019-05-30T06:58:48.070Z,1002.24
2019-05-30T06:59:36.575Z,1002.06
2019-05-30T07:00:36.572Z,1001.83
2019-05-30T07:01:36.574Z,1001.76
2019-05-30T07:02:36.582Z,1001.86
2019-05-30T07:03:36.675Z,1001.85
2019-05-30T07:04:50.990Z,1001.89
2019-05-30T07:05:36.970Z,1001.50
2019-05-30T07:06:36.896Z,1001.45
2019-05-30T07:07:36.741Z,1001.38
2019-05-30T07:08:36.568Z,1001.48
2019-05-30T07:09:36.572Z,1001.56
2019-05-30T07:10:36.567Z,1001.66
2019-05-30T07:11:36.566Z,1001.51
2019-05-30T07:12:36.570Z,1001.35
2019-05-30T07:13:36.569Z,1001.20
2019-05-30T07:14:36.564Z,1001.14
2019-05-30T07:15:36.571Z,1001.22
2019-05-30T07:16:36.565Z,1000.93
2019-05-30T07:17:36.572Z,1000.75
2019-05-30T07:18:36.889Z,1001.02
2019-05-30T07:19:37.844Z,1000.79
2019-05-30T07:20:36.562Z,1000.55
2019-05-30T07:21:36.562Z,1000.56
2019-05-30T07:22:36.569Z,1000.30
2019-05-30T07:23:39.307Z,1000.22
2019-05-30T07:24:36.560Z,999.94
2019-05-30T07:25:36.558Z,1000.04
2019-05-30T07:26:36.557Z,1000.53
2019-05-30T07:27:36.566Z,1000.95
2019-05-30T07:28:36.556Z,1000.59
2019-05-30T07:29:36.557Z,1000.76
2019-05-30T07:30:36.578Z,999.91
2019-05-30T07:31:37.411Z,999.43
2019-05-30T07:32:36.566Z,999.12
2019-05-30T07:33:36.561Z,998.91
2019-05-30T07:34:36.563Z,998.96
2019-05-30T07:35:36.561Z,998.69
2019-05-30T07:36:36.565Z,998.80
2019-05-30T07:37:36.565Z,998.96
2019-05-30T07:38:36.553Z,999.62
2019-05-30T07:39:37.616Z,1000.02
2019-05-30T07:40:36.552Z,1000.23
2019-05-30T07:41:36.550Z,1000.55
2019-05-30T07:42:36.575Z,1000.48
2019-05-30T07:43:36.573Z,999.36
2019-05-30T07:44:36.557Z,999.09
2019-05-30T07:45:36.549Z,998.93
2019-05-30T07:46:37.286Z,998.51
2019-05-30T07:47:36.554Z,998.19
2019-05-30T07:48:36.547Z,998.88
2019-05-30T07:49:36.549Z,999.23
2019-05-30T07:50:36.545Z,999.10
2019-05-30T07:51:36.545Z,999.20
2019-05-30T07:52:36.556Z,999.13
2019-05-30T07:53:36.543Z,998.95
2019-05-30T07:54:36.543Z,998.58
2019-05-30T07:55:36.545Z,998.56
2019-05-30T07:56:38.011Z,999.57
2019-05-30T07:57:39.716Z,1000.30
2019-05-30T07:58:37.398Z,1000.01
2019-05-30T07:59:36.539Z,998.90
2019-05-30T08:00:37.650Z,998.91
2019-05-30T08:01:36.541Z,999.01
2019-05-30T08:02:37.898Z,999.49
2019-05-30T08:03:36.547Z,999.55
2019-05-30T08:04:37.771Z,999.62
2019-05-30T08:05:36.536Z,999.73
2019-05-30T08:06:36.536Z,1000.52
2019-05-30T08:07:36.537Z,1000.25
2019-05-30T08:08:36.545Z,1000.31
2019-05-30T08:09:36.536Z,1000.28
2019-05-30T08:10:36.537Z,1000.29
2019-05-30T08:11:36.538Z,1000.39
2019-05-30T08:12:36.535Z,1000.62
2019-05-30T08:13:37.320Z,1001.04
2019-05-30T08:14:37.350Z,1000.94
2019-05-30T08:15:43.023Z,1000.45
2019-05-30T08:16:37.507Z,1000.39
2019-05-30T08:17:37.716Z,1000.81
2019-05-30T08:18:37.832Z,1001.09
2019-05-30T08:19:36.532Z,1001.25
2019-05-30T08:20:36.533Z,1001.21
2019-05-30T08:21:36.528Z,1001.56
2019-05-30T08:22:36.557Z,1001.25
2019-05-30T08:23:36.538Z,1000.74
2019-05-30T08:24:36.583Z,1000.76
2019-05-30T08:25:36.648Z,1000.04
2019-05-30T08:26:36.574Z,999.33
2019-05-30T08:27:36.611Z,999.14
2019-05-30T08:28:36.568Z,999.50
2019-05-30T08:29:36.533Z,999.78
2019-05-30T08:30:36.702Z,1000.37
2019-05-30T08:31:36.875Z,1000.98
2019-05-30T08:32:36.925Z,1000.82
2019-05-30T08:33:37.574Z,1000.60
2019-05-30T08:34:36.726Z,1000.84
2019-05-30T08:35:47.673Z,1000.83
2019-05-30T08:36:37.118Z,1000.37
2019-05-30T08:37:37.255Z,1000.68
2019-05-30T08:38:37.443Z,1000.75
2019-05-30T08:39:37.362Z,1000.28
2019-05-30T08:40:37.679Z,1000.54
2019-05-30T08:41:37.384Z,1001.10
2019-05-30T08:42:38.214Z,1001.24
2019-05-30T08:43:37.566Z,1001.14
2019-05-30T08:44:36.515Z,1001.04
2019-05-30T08:45:37.816Z,1001.07
2019-05-30T08:46:36.516Z,1001.06
2019-05-30T08:47:36.518Z,1001.38
2019-05-30T08:48:36.516Z,1001.56
2019-05-30T08:49:36.513Z,1001.49
2019-05-30T08:50:40.852Z,1001.21
2019-05-30T08:51:38.255Z,1001.52
2019-05-30T08:52:36.619Z,1001.70
2019-05-30T08:53:36.612Z,1001.72
2019-05-30T08:54:36.521Z,1001.86
2019-05-30T08:55:36.534Z,1001.48
2019-05-30T08:56:36.605Z,1001.52
2019-05-30T08:57:36.726Z,1001.51
2019-05-30T08:58:36.797Z,1001.07
2019-05-30T08:59:36.708Z,1000.57
2019-05-30T09:00:36.509Z,1000.96
2019-05-30T09:01:37.456Z,1001.26
2019-05-30T09:02:36.653Z,1001.29
2019-05-30T09:03:38.374Z,1001.33
2019-05-30T09:04:37.819Z,1001.37
2019-05-30T09:05:36.505Z,1000.74
2019-05-30T09:06:36.506Z,1000.38
2019-05-30T09:07:36.678Z,1000.56
2019-05-30T09:08:36.502Z,1000.76
2019-05-30T09:09:36.506Z,1000.94
2019-05-30T09:10:37.856Z,1001.01
2019-05-30T09:11:37.672Z,1001.15
2019-05-30T09:12:38.539Z,1001.83
2019-05-30T09:13:37.856Z,1001.84
2019-05-30T09:14:37.845Z,1002.61
2019-05-30T09:15:37.627Z,1002.78
2019-05-30T09:16:36.498Z,1002.93
2019-05-30T09:17:38.690Z,1003.36
2019-05-30T09:18:37.989Z,1003.91
2019-05-30T09:19:37.898Z,1003.85
2019-05-30T09:20:37.950Z,1004.03
2019-05-30T09:21:36.854Z,1003.44
2019-05-30T09:22:37.959Z,1002.73
2019-05-30T09:23:37.340Z,1002.37
2019-05-30T09:24:37.476Z,1002.46
2019-05-30T09:25:37.207Z,1002.45
2019-05-30T09:26:38.421Z,1001.84
2019-05-30T09:27:37.735Z,1001.35
2019-05-30T09:28:36.491Z,1001.21
2019-05-30T09:29:36.500Z,1001.48
2019-05-30T09:30:36.503Z,1002.05
2019-05-30T09:31:36.491Z,1002.58
2019-05-30T09:32:36.493Z,1002.79
2019-05-30T09:33:36.490Z,1002.81
2019-05-30T09:34:36.498Z,1002.29
2019-05-30T09:35:36.488Z,1002.20
2019-05-30T09:36:36.489Z,1002.15
2019-05-30T09:37:36.495Z,1002.17
2019-05-30T09:38:36.487Z,1001.77
2019-05-30T09:39:36.515Z,1001.56
2019-05-30T09:40:36.484Z,1001.78
2019-05-30T09:41:36.490Z,1001.72
2019-05-30T09:42:36.489Z,1001.55
2019-05-30T09:43:36.487Z,1001.73
2019-05-30T09:44:36.488Z,1001.76
2019-05-30T09:45:36.492Z,1001.52
2019-05-30T09:46:36.484Z,1001.01
2019-05-30T09:47:36.507Z,1000.68
2019-05-30T09:48:36.486Z,1000.60
2019-05-30T09:49:36.491Z,1000.20
2019-05-30T09:50:36.488Z,1000.10
2019-05-30T09:51:36.481Z,1000.51
2019-05-30T09:52:36.487Z,1000.64
2019-05-30T09:53:36.481Z,1000.51
2019-05-30T09:54:36.486Z,1000.55
2019-05-30T09:55:36.481Z,1000.25
2019-05-30T09:56:36.479Z,1000.45
2019-05-30T09:57:36.475Z,1000.16
2019-05-30T09:58:36.477Z,1000.49
2019-05-30T09:59:36.486Z,1000.63
2019-05-30T10:00:36.483Z,1000.68
2019-05-30T10:01:36.477Z,1000.41
2019-05-30T10:02:36.487Z,1000.26
2019-05-30T10:03:36.483Z,1000.22
2019-05-30T10:04:36.502Z,1000.26
2019-05-30T10:05:36.492Z,1000.48
2019-05-30T10:06:36.606Z,1000.78
2019-05-30T10:07:36.488Z,1000.62
2019-05-30T10:08:36.470Z,1000.21
2019-05-30T10:09:36.500Z,1000.34
2019-05-30T10:10:36.470Z,1000.36
2019-05-30T10:11:36.485Z,1000.08
2019-05-30T10:12:36.494Z,999.93
2019-05-30T10:13:36.468Z,999.67
2019-05-30T10:14:36.474Z,999.60
2019-05-30T10:15:36.481Z,999.63
2019-05-30T10:16:36.472Z,1000.01
2019-05-30T10:17:36.473Z,999.94
2019-05-30T10:18:36.476Z,999.64
2019-05-30T10:19:36.471Z,999.34
2019-05-30T10:20:36.476Z,999.36
2019-05-30T10:21:36.465Z,999.48
2019-05-30T10:22:36.463Z,999.31
2019-05-30T10:23:36.466Z,999.49
2019-05-30T10:24:36.488Z,999.68
2019-05-30T10:25:36.467Z,999.65
2019-05-30T10:26:36.463Z,999.73
2019-05-30T10:27:36.465Z,999.87
2019-05-30T10:28:36.461Z,1000.21
2019-05-30T10:29:36.475Z,999.98
2019-05-30T10:30:36.463Z,999.58
2019-05-30T10:31:36.460Z,999.07
2019-05-30T10:32:36.463Z,998.97
2019-05-30T10:33:36.504Z,999.14
2019-05-30T10:34:36.459Z,999.21
2019-05-30T10:35:36.468Z,999.25
2019-05-30T10:36:44.365Z,998.74
2019-05-30T10:37:36.456Z,998.79
2019-05-30T10:38:36.474Z,998.89
2019-05-30T10:39:36.461Z,998.97
2019-05-30T10:40:36.483Z,999.30
2019-05-30T10:41:36.449Z,999.31
2019-05-30T10:42:36.451Z,999.13
2019-05-30T10:43:36.454Z,998.78
2019-05-30T10:44:36.520Z,998.36
2019-05-30T10:45:38.575Z,998.92
2019-05-30T10:46:36.454Z,998.86
2019-05-30T10:47:36.453Z,998.71
2019-05-30T10:48:36.451Z,999.15
2019-05-30T10:49:36.451Z,999.25
2019-05-30T10:50:36.463Z,999.26
2019-05-30T10:51:36.450Z,999.30
2019-05-30T10:52:36.453Z,999.13
2019-05-30T10:53:37.609Z,999.27
2019-05-30T10:54:36.447Z,999.34
2019-05-30T10:55:36.456Z,999.19
2019-05-30T10:56:36.445Z,998.95
2019-05-30T10:57:36.458Z,998.65
2019-05-30T10:58:36.445Z,998.37
2019-05-30T10:59:36.449Z,998.66
2019-05-30T11:00:36.455Z,998.54
2019-05-30T11:01:36.445Z,998.43
2019-05-30T11:02:36.445Z,998.49
2019-05-30T11:03:36.443Z,998.26
2019-05-30T11:04:36.442Z,998.09
2019-05-30T11:05:36.444Z,997.91
2019-05-30T11:06:36.452Z,998.42
2019-05-30T11:07:36.440Z,998.19
2019-05-30T11:08:36.443Z,998.20
2019-05-30T11:09:36.438Z,998.01
2019-05-30T11:10:36.441Z,998.44
2019-05-30T11:11:36.445Z,998.65
2019-05-30T11:12:36.437Z,998.43
2019-05-30T11:13:36.438Z,998.10
2019-05-30T11:14:36.453Z,998.19
2019-05-30T11:15:36.438Z,998.36
2019-05-30T11:16:36.447Z,998.36
2019-05-30T11:17:36.434Z,998.52
2019-05-30T11:18:36.438Z,998.62
2019-05-30T11:19:36.441Z,998.60
2019-05-30T11:20:36.431Z,998.25
2019-05-30T11:21:36.436Z,998.36
2019-05-30T11:22:36.433Z,998.20
2019-05-30T11:23:36.429Z,998.19
2019-05-30T11:24:36.438Z,997.88
2019-05-30T11:25:36.431Z,997.81
2019-05-30T11:26:36.433Z,997.53
2019-05-30T11:27:36.430Z,997.24
2019-05-30T11:28:36.431Z,996.92
2019-05-30T11:29:36.429Z,996.72
2019-05-30T11:30:36.430Z,996.59
2019-05-30T11:31:36.442Z,996.77
2019-05-30T11:32:36.429Z,997.14
2019-05-30T11:33:36.430Z,997.35
2019-05-30T11:34:36.426Z,997.93
2019-05-30T11:35:36.426Z,998.04
2019-05-30T11:36:36.437Z,997.56
2019-05-30T11:37:36.424Z,997.82
2019-05-30T11:38:36.431Z,997.20
2019-05-30T11:39:36.426Z,997.62
2019-05-30T11:40:36.456Z,997.75
2019-05-30T11:41:36.431Z,997.97
2019-05-30T11:42:36.422Z,997.74
2019-05-30T11:43:36.426Z,997.32
2019-05-30T11:44:36.419Z,997.22
2019-05-30T11:45:36.426Z,997.38
2019-05-30T11:46:36.435Z,997.40
2019-05-30T11:47:36.427Z,997.70
2019-05-30T11:48:36.417Z,998.03
2019-05-30T11:49:36.420Z,998.13
2019-05-30T11:50:36.416Z,998.00
2019-05-30T11:51:36.453Z,997.80
2019-05-30T11:52:36.417Z,997.52
2019-05-30T11:53:36.416Z,997.56
2019-05-30T11:54:36.414Z,997.54
2019-05-30T11:55:36.415Z,997.58
2019-05-30T11:56:36.413Z,997.65
2019-05-30T11:57:36.428Z,997.61
2019-05-30T11:58:36.415Z,997.34
2019-05-30T11:59:36.417Z,997.21
2019-05-30T12:00:36.433Z,997.04
2019-05-30T12:01:36.421Z,997.24
2019-05-30T12:02:36.508Z,997.41
2019-05-30T12:03:36.411Z,997.46
2019-05-30T12:04:36.412Z,997.49
2019-05-30T12:05:36.411Z,997.78
2019-05-30T12:06:36.414Z,998.02
2019-05-30T12:07:37.081Z,998.17
2019-05-30T12:08:36.409Z,998.20
2019-05-30T12:09:36.408Z,998.25
2019-05-30T12:10:36.462Z,998.21